createdAt,value
2022-10-02T00:02:06.416Z,3.35
2022-10-02T00:04:34.844Z,3.55
2022-10-02T00:07:05.852Z,2.67
2022-10-02T00:09:45.437Z,2.58
2022-10-02T00:12:14.734Z,2.60
2022-10-02T00:14:41.744Z,3.53
2022-10-02T00:17:15.035Z,2.60
2022-10-02T00:19:41.870Z,2.72
2022-10-02T00:22:14.885Z,2.90
2022-10-02T00:25:03.972Z,4.03
2022-10-02T00:28:00.896Z,3.28
2022-10-02T00:30:27.751Z,4.45
2022-10-02T00:33:09.444Z,3.25
2022-10-02T00:35:48.455Z,2.38
2022-10-02T00:38:21.872Z,3.20
2022-10-02T00:41:13.396Z,2.90
2022-10-02T00:44:11.820Z,3.33
2022-10-02T00:46:42.062Z,2.65
2022-10-02T00:49:24.016Z,2.55
2022-10-02T00:52:05.589Z,2.13
2022-10-02T00:55:09.871Z,2.92
2022-10-02T00:57:59.755Z,2.88
2022-10-02T01:00:26.497Z,3.38
2022-10-02T01:03:15.763Z,3.22
2022-10-02T01:05:42.487Z,2.92
2022-10-02T01:08:09.431Z,2.95
2022-10-02T01:10:38.071Z,3.15
2022-10-02T01:13:05.047Z,3.58
2022-10-02T01:15:44.898Z,2.85
2022-10-02T01:18:12.290Z,3.20
2022-10-02T01:20:41.793Z,4.75
2022-10-02T01:23:43.899Z,3.72
2022-10-02T01:26:10.669Z,3.15
2022-10-02T01:28:37.478Z,2.22
2022-10-02T01:31:16.277Z,3.28
2022-10-02T01:33:43.324Z,3.17
2022-10-02T01:36:10.700Z,3.97
2022-10-02T01:38:37.900Z,3.28
2022-10-02T01:41:04.668Z,2.63
2022-10-02T01:43:55.774Z,2.65
2022-10-02T01:47:06.898Z,2.70
2022-10-02T01:49:45.438Z,2.80
2022-10-02T01:52:27.716Z,2.88
2022-10-02T01:55:12.661Z,3.25
2022-10-02T01:57:48.256Z,3.40
2022-10-02T02:00:18.684Z,2.10
2022-10-02T02:03:37.640Z,2.80
2022-10-02T02:06:12.049Z,2.45
2022-10-02T02:08:54.970Z,2.92
2022-10-02T02:11:23.298Z,2.00
2022-10-02T02:14:11.331Z,2.25
2022-10-02T02:16:45.886Z,2.90
2022-10-02T02:19:24.546Z,2.78
2022-10-02T02:21:56.127Z,3.55
2022-10-02T02:24:33.236Z,2.25
2022-10-02T02:27:01.095Z,2.83
2022-10-02T02:29:29.721Z,2.08
2022-10-02T02:31:56.700Z,2.90
2022-10-02T02:34:26.584Z,3.28
2022-10-02T02:36:56.285Z,2.17
2022-10-02T02:39:31.736Z,2.22
2022-10-02T02:42:02.558Z,2.00
2022-10-02T02:44:36.039Z,2.67
2022-10-02T02:47:18.137Z,3.22
2022-10-02T02:49:53.761Z,2.58
2022-10-02T02:52:24.075Z,2.17
2022-10-02T02:55:08.207Z,3.13
2022-10-02T03:00:04.974Z,2.38
2022-10-02T03:02:31.812Z,2.28
2022-10-02T03:04:58.538Z,4.78
2022-10-02T03:07:25.291Z,2.22
2022-10-02T03:10:06.739Z,2.60
2022-10-02T03:12:50.430Z,3.38
2022-10-02T03:16:04.338Z,2.63
2022-10-02T03:19:08.005Z,2.03
2022-10-02T03:21:42.136Z,2.40
2022-10-02T03:24:19.926Z,2.25
2022-10-02T03:26:55.901Z,2.45
2022-10-02T03:29:27.068Z,1.90
2022-10-02T03:31:53.985Z,2.10
2022-10-02T03:34:20.953Z,2.97
2022-10-02T03:36:47.713Z,3.50
2022-10-02T03:39:25.069Z,2.03
2022-10-02T03:41:52.712Z,2.15
2022-10-02T03:44:19.502Z,2.72
2022-10-02T03:46:46.269Z,2.63
2022-10-02T03:49:12.971Z,2.70
2022-10-02T03:51:39.721Z,2.05
2022-10-02T03:54:17.810Z,2.28
2022-10-02T03:56:58.817Z,1.80
2022-10-02T03:59:54.490Z,2.13
2022-10-02T04:02:35.201Z,2.17
2022-10-02T04:05:15.801Z,2.28
2022-10-02T04:07:43.502Z,1.83
2022-10-02T04:10:13.203Z,2.60
2022-10-02T04:12:43.215Z,2.60
2022-10-02T04:15:18.909Z,2.35
2022-10-02T04:18:07.311Z,2.45
2022-10-02T04:20:43.919Z,2.08
2022-10-02T04:23:21.703Z,2.08
2022-10-02T04:25:51.194Z,1.77
2022-10-02T04:28:23.908Z,2.50
2022-10-02T04:30:53.100Z,2.05
2022-10-02T04:33:20.512Z,1.60
2022-10-02T04:36:03.878Z,2.60
2022-10-02T04:39:07.491Z,1.97
2022-10-02T04:41:43.262Z,2.97
2022-10-02T04:44:52.160Z,2.33
2022-10-02T04:47:55.970Z,2.67
2022-10-02T04:50:32.113Z,1.95
2022-10-02T04:53:29.614Z,2.47
2022-10-02T04:56:11.709Z,1.95
2022-10-02T04:58:59.677Z,2.60
2022-10-02T05:01:51.162Z,1.77
2022-10-02T05:04:29.849Z,2.17
2022-10-02T05:07:16.840Z,2.05
2022-10-02T05:09:46.657Z,2.03
2022-10-02T05:12:43.529Z,1.85
2022-10-02T05:15:22.161Z,2.17
2022-10-02T05:18:07.725Z,2.05
2022-10-02T05:21:04.876Z,2.20
2022-10-02T05:23:50.140Z,1.88
2022-10-02T05:26:35.934Z,2.83
2022-10-02T05:29:44.906Z,1.50
2022-10-02T05:32:49.482Z,2.13
2022-10-02T05:35:44.261Z,1.52
2022-10-02T05:38:38.550Z,1.98
2022-10-02T05:41:26.583Z,2.92
2022-10-02T05:44:00.309Z,1.65
2022-10-02T05:46:29.032Z,2.83
2022-10-02T05:49:22.344Z,1.77
2022-10-02T05:51:53.586Z,2.20
2022-10-02T05:54:46.910Z,1.80
2022-10-02T05:57:35.524Z,1.63
2022-10-02T06:00:20.809Z,1.67
2022-10-02T06:03:09.175Z,2.17
2022-10-02T06:05:55.526Z,3.42
2022-10-02T06:08:32.999Z,1.80
2022-10-02T06:11:08.954Z,2.28
2022-10-02T06:13:45.797Z,2.58
2022-10-02T06:16:20.309Z,1.92
2022-10-02T06:18:49.793Z,1.90
2022-10-02T06:21:33.342Z,2.28
2022-10-02T06:24:02.446Z,1.70
2022-10-02T06:26:46.238Z,2.50
2022-10-02T06:29:26.896Z,2.28
2022-10-02T06:32:09.080Z,2.40
2022-10-02T06:34:35.857Z,2.35
2022-10-02T06:37:25.756Z,2.33
2022-10-02T06:40:21.423Z,3.20
2022-10-02T06:43:28.001Z,3.17
2022-10-02T06:45:58.911Z,2.92
2022-10-02T06:48:43.367Z,2.13
2022-10-02T06:51:35.107Z,3.38
2022-10-02T06:54:20.577Z,2.17
2022-10-02T06:57:11.989Z,3.88
2022-10-02T07:00:23.188Z,3.55
2022-10-02T07:02:52.980Z,3.47
2022-10-02T07:05:28.462Z,2.35
2022-10-02T07:08:17.150Z,3.05
2022-10-02T07:10:57.542Z,2.67
2022-10-02T07:13:46.222Z,2.22
2022-10-02T07:16:31.685Z,2.88
2022-10-02T07:19:19.452Z,2.40
2022-10-02T07:22:01.028Z,2.00
2022-10-02T07:24:43.317Z,1.95
2022-10-02T07:27:18.931Z,2.15
2022-10-02T07:30:03.846Z,2.60
2022-10-02T07:32:59.522Z,2.75
2022-10-02T07:35:53.832Z,4.63
2022-10-02T07:38:56.129Z,2.17
2022-10-02T07:41:52.563Z,1.90
2022-10-02T07:44:32.405Z,2.42
2022-10-02T07:47:21.588Z,2.70
2022-10-02T07:49:56.212Z,2.33
2022-10-02T07:52:32.000Z,2.60
2022-10-02T07:55:41.535Z,2.15
2022-10-02T07:58:18.820Z,3.05
2022-10-02T08:00:54.481Z,2.05
2022-10-02T08:03:25.020Z,2.55
2022-10-02T08:05:55.682Z,3.08
2022-10-02T08:08:24.696Z,2.00
2022-10-02T08:11:36.923Z,2.42
2022-10-02T08:14:11.572Z,2.35
2022-10-02T08:16:42.855Z,2.75
2022-10-02T08:19:23.035Z,2.13
2022-10-02T08:21:55.794Z,3.58
2022-10-02T08:24:26.030Z,2.65
2022-10-02T08:27:01.067Z,3.50
2022-10-02T08:29:41.846Z,3.15
2022-10-02T08:32:13.114Z,2.38
2022-10-02T08:34:40.864Z,2.92
2022-10-02T08:37:24.374Z,4.30
2022-10-02T08:40:18.370Z,2.17
2022-10-02T08:42:48.141Z,2.85
2022-10-02T08:46:13.171Z,3.45
2022-10-02T08:49:03.015Z,2.22
2022-10-02T08:51:42.111Z,3.00
2022-10-02T08:54:08.907Z,2.33
2022-10-02T08:56:47.782Z,2.72
2022-10-02T08:59:23.938Z,2.55
2022-10-02T09:02:29.134Z,3.00
2022-10-02T09:05:11.106Z,2.50
2022-10-02T09:07:59.163Z,2.58
2022-10-02T09:10:53.249Z,3.33
2022-10-02T09:13:32.272Z,3.20
2022-10-02T09:16:09.295Z,2.55
2022-10-02T09:18:55.743Z,2.70
2022-10-02T09:21:42.821Z,3.90
2022-10-02T09:24:24.623Z,2.42
2022-10-02T09:26:54.089Z,2.40
2022-10-02T09:29:55.772Z,2.95
2022-10-02T09:33:00.853Z,3.08
2022-10-02T09:35:36.989Z,2.40
2022-10-02T09:38:29.973Z,3.03
2022-10-02T09:41:23.616Z,2.70
2022-10-02T09:44:29.233Z,2.97
2022-10-02T09:47:05.239Z,3.22
2022-10-02T09:50:02.750Z,2.22
2022-10-02T09:53:00.010Z,2.90
2022-10-02T09:56:03.658Z,3.80
2022-10-02T09:58:57.119Z,2.92
2022-10-02T10:01:40.806Z,2.47
2022-10-02T10:04:17.682Z,3.28
2022-10-02T10:06:54.512Z,3.60
2022-10-02T10:09:35.191Z,3.25
2022-10-02T10:12:16.847Z,2.22
2022-10-02T10:15:15.737Z,2.85
2022-10-02T10:18:42.544Z,2.65
2022-10-02T10:21:30.216Z,3.03
2022-10-02T10:24:18.229Z,2.88
2022-10-02T10:27:22.251Z,3.45
2022-10-02T10:30:07.511Z,2.28
2022-10-02T10:32:57.094Z,2.15
2022-10-02T10:35:37.477Z,2.42
2022-10-02T10:38:31.946Z,2.85
2022-10-02T10:41:37.113Z,3.13
2022-10-02T10:44:22.216Z,1.90
2022-10-02T10:47:18.235Z,2.20
2022-10-02T10:50:05.965Z,2.60
2022-10-02T10:52:39.137Z,2.15
2022-10-02T10:55:54.456Z,2.40
2022-10-02T10:58:23.085Z,2.80
2022-10-02T11:01:07.269Z,2.58
2022-10-02T11:03:58.655Z,2.58
2022-10-02T11:06:45.339Z,2.83
2022-10-02T11:09:21.055Z,2.75
2022-10-02T11:12:08.849Z,3.25
2022-10-02T11:15:03.777Z,2.40
2022-10-02T11:17:40.598Z,2.28
2022-10-02T11:20:15.535Z,2.30
2022-10-02T11:22:42.202Z,2.75
2022-10-02T11:25:14.206Z,3.10
2022-10-02T11:28:14.871Z,1.70
2022-10-02T11:30:54.973Z,2.58
2022-10-02T11:33:43.270Z,2.25
2022-10-02T11:36:19.246Z,1.67
2022-10-02T11:39:15.253Z,3.67
2022-10-02T11:42:00.737Z,2.08
2022-10-02T11:44:36.698Z,3.15
2022-10-02T11:47:14.741Z,2.60
2022-10-02T11:49:47.806Z,2.30
2022-10-02T11:52:26.235Z,2.25
2022-10-02T11:55:23.583Z,2.38
2022-10-02T11:58:13.451Z,2.28
2022-10-02T12:01:05.846Z,2.10
2022-10-02T12:03:58.717Z,2.28
2022-10-02T12:06:51.566Z,2.00
2022-10-02T12:10:12.846Z,2.25
2022-10-02T12:13:02.412Z,1.98
2022-10-02T12:15:47.405Z,1.98
2022-10-02T12:18:41.494Z,2.13
2022-10-02T12:21:39.381Z,2.55
2022-10-02T12:24:47.916Z,1.75
2022-10-02T12:27:27.072Z,2.33
2022-10-02T12:30:15.610Z,2.38
2022-10-02T12:32:56.233Z,2.47
2022-10-02T12:35:34.650Z,2.90
2022-10-02T12:38:35.662Z,2.28
2022-10-02T12:41:03.815Z,2.80
2022-10-02T12:44:09.745Z,2.22
2022-10-02T12:47:12.526Z,1.38
2022-10-02T12:49:46.784Z,2.50
2022-10-02T12:52:39.257Z,2.28
2022-10-02T12:55:36.897Z,1.77
2022-10-02T12:58:06.405Z,2.33
2022-10-02T13:00:49.250Z,1.98
2022-10-02T13:03:47.535Z,2.30
2022-10-02T13:06:46.647Z,2.45
2022-10-02T13:09:29.693Z,2.53
2022-10-02T13:12:16.535Z,1.95
2022-10-02T13:14:49.913Z,1.75
2022-10-02T13:17:25.480Z,1.80
2022-10-02T13:20:12.387Z,1.90
2022-10-02T13:23:19.052Z,1.77
2022-10-02T13:25:57.775Z,2.20
2022-10-02T13:28:51.659Z,2.17
2022-10-02T13:31:27.282Z,1.60
2022-10-02T13:34:38.812Z,1.73
2022-10-02T13:37:17.701Z,3.03
2022-10-02T13:39:53.399Z,1.90
2022-10-02T13:42:46.043Z,1.65
2022-10-02T13:45:19.183Z,1.95
2022-10-02T13:48:07.279Z,1.92
2022-10-02T13:50:43.165Z,2.53
2022-10-02T13:53:09.866Z,1.52
2022-10-02T13:55:51.691Z,1.98
2022-10-02T13:58:31.079Z,1.60
2022-10-02T14:01:10.673Z,1.67
2022-10-02T14:03:43.304Z,1.45
2022-10-02T14:06:23.032Z,2.67
2022-10-02T14:09:05.274Z,1.92
2022-10-02T14:12:06.079Z,1.85
2022-10-02T14:14:41.268Z,1.40
2022-10-02T14:17:15.371Z,2.47
2022-10-02T14:20:08.747Z,3.15
2022-10-02T14:22:49.152Z,2.50
2022-10-02T14:25:28.073Z,2.22
2022-10-02T14:28:18.569Z,1.55
2022-10-02T14:31:22.184Z,3.78
2022-10-02T14:34:07.123Z,1.90
2022-10-02T14:37:10.948Z,2.20
2022-10-02T14:39:41.715Z,1.95
2022-10-02T14:42:26.457Z,2.10
2022-10-02T14:45:05.409Z,1.83
2022-10-02T14:47:52.803Z,2.38
2022-10-02T14:50:39.288Z,2.78
2022-10-02T14:53:24.871Z,2.55
2022-10-02T14:56:19.430Z,1.83
2022-10-02T14:58:55.026Z,2.38
2022-10-02T15:01:22.881Z,2.97
2022-10-02T15:04:04.942Z,3.78
2022-10-02T15:06:40.656Z,2.90
2022-10-02T15:09:28.657Z,2.00
2022-10-02T15:12:04.436Z,2.92
2022-10-02T15:14:51.881Z,2.58
2022-10-02T15:18:00.379Z,2.50
2022-10-02T15:20:59.643Z,1.98
2022-10-02T15:23:44.192Z,2.00
2022-10-02T15:26:38.577Z,2.38
2022-10-02T15:29:21.072Z,2.42
2022-10-02T15:32:24.702Z,1.95
2022-10-02T15:35:12.912Z,1.90
2022-10-02T15:37:48.473Z,1.38
2022-10-02T15:40:19.224Z,2.10
2022-10-02T15:43:12.189Z,2.78
2022-10-02T15:46:06.287Z,2.65
2022-10-02T15:51:32.198Z,3.15
2022-10-02T15:54:14.971Z,2.63
2022-10-02T15:56:44.717Z,2.40
2022-10-02T15:59:31.181Z,1.92
2022-10-02T16:02:06.882Z,2.33
2022-10-02T16:04:57.347Z,2.63
2022-10-02T16:07:51.205Z,2.70
2022-10-02T16:13:47.034Z,1.90
2022-10-02T16:16:22.261Z,1.90
2022-10-02T16:19:13.227Z,2.63
2022-10-02T16:22:03.706Z,1.92
2022-10-02T16:24:49.495Z,1.73
2022-10-02T16:27:48.369Z,1.90
2022-10-02T16:30:22.403Z,2.70
2022-10-02T16:33:09.952Z,2.58
2022-10-02T16:35:48.897Z,1.83
2022-10-02T16:38:18.939Z,2.20
2022-10-02T16:40:58.598Z,2.33
2022-10-02T16:43:47.573Z,1.90
2022-10-02T16:46:15.891Z,2.05
2022-10-02T16:48:50.594Z,1.95
2022-10-02T16:51:45.721Z,2.72
2022-10-02T16:54:24.625Z,2.38
2022-10-02T16:57:01.183Z,2.35
2022-10-02T17:00:03.365Z,2.10
2022-10-02T17:03:31.413Z,3.20
2022-10-02T17:06:05.984Z,2.65
2022-10-02T17:08:44.607Z,1.98
2022-10-02T17:11:21.766Z,1.98
2022-10-02T17:14:14.752Z,2.15
2022-10-02T17:16:52.315Z,2.13
2022-10-02T17:19:25.247Z,2.10
2022-10-02T17:22:01.002Z,1.87
2022-10-02T17:24:35.147Z,2.08
2022-10-02T17:27:19.547Z,2.50
2022-10-02T17:30:04.480Z,2.22
2022-10-02T17:32:46.612Z,2.00
2022-10-02T17:35:18.040Z,2.08
2022-10-02T17:37:49.699Z,2.22
2022-10-02T17:40:30.114Z,2.40
2022-10-02T17:43:21.307Z,2.42
2022-10-02T17:45:50.306Z,2.65
2022-10-02T17:48:23.332Z,2.00
2022-10-02T17:50:52.898Z,2.10
2022-10-02T17:53:42.174Z,1.98
2022-10-02T17:56:36.223Z,2.22
2022-10-02T17:59:26.173Z,2.20
2022-10-02T18:02:12.110Z,3.22
2022-10-02T18:04:45.140Z,3.50
2022-10-02T18:07:30.017Z,3.25
2022-10-02T18:10:18.087Z,2.50
2022-10-02T18:13:29.438Z,3.58
2022-10-02T18:16:14.618Z,2.90
2022-10-02T18:19:00.909Z,2.88
2022-10-02T18:21:39.687Z,3.10
2022-10-02T18:24:37.416Z,3.50
2022-10-02T18:27:27.046Z,4.40
2022-10-02T18:29:56.909Z,3.15
2022-10-02T18:33:00.407Z,2.72
2022-10-02T18:35:50.249Z,2.75
2022-10-02T18:38:22.005Z,4.22
2022-10-02T18:40:52.689Z,3.55
2022-10-02T18:43:31.533Z,2.33
2022-10-02T18:46:16.717Z,2.58
2022-10-02T18:49:07.700Z,3.30
2022-10-02T18:51:49.559Z,3.20
2022-10-02T18:54:28.903Z,2.72
2022-10-02T18:57:07.745Z,2.72
2022-10-02T18:59:56.207Z,3.30
2022-10-02T19:02:29.920Z,2.80
2022-10-02T19:07:46.724Z,3.72
2022-10-02T19:10:29.710Z,3.88
2022-10-02T19:13:01.277Z,3.83
2022-10-02T19:15:32.131Z,3.50
2022-10-02T19:18:03.699Z,4.85
2022-10-02T19:20:40.655Z,4.80
2022-10-02T19:23:07.541Z,4.30
2022-10-02T19:25:34.300Z,4.55
2022-10-02T19:28:01.497Z,4.03
2022-10-02T19:30:30.606Z,4.70
2022-10-02T19:32:58.793Z,6.50
2022-10-02T19:35:51.957Z,6.03
2022-10-02T19:38:30.787Z,5.18
2022-10-02T19:40:58.412Z,5.95
2022-10-02T19:43:28.873Z,7.25
2022-10-02T19:45:57.719Z,6.90
2022-10-02T19:48:28.055Z,6.82
2022-10-02T19:50:59.605Z,7.53
2022-10-02T19:53:34.132Z,8.05
2022-10-02T19:56:06.974Z,7.93
2022-10-02T19:58:58.687Z,7.25
2022-10-02T20:01:44.198Z,7.13
2022-10-02T20:04:16.593Z,7.38
2022-10-02T20:06:44.140Z,7.10
2022-10-02T20:09:32.437Z,7.53
2022-10-02T20:12:03.727Z,7.30
2022-10-02T20:14:34.699Z,6.22
2022-10-02T20:17:10.178Z,5.40
2022-10-02T20:20:11.977Z,5.72
2022-10-02T20:22:44.045Z,5.32
2022-10-02T20:25:28.962Z,5.82
2022-10-02T20:28:02.423Z,4.72
2022-10-02T20:30:41.683Z,4.43
2022-10-02T20:33:40.101Z,4.30
2022-10-02T20:36:08.448Z,5.15
2022-10-02T20:38:55.259Z,3.72
2022-10-02T20:41:30.353Z,4.22
2022-10-02T20:44:02.352Z,5.70
2022-10-02T20:47:06.941Z,5.18
2022-10-02T20:49:54.913Z,6.05
2022-10-02T20:52:46.861Z,4.80
2022-10-02T20:55:44.933Z,4.85
2022-10-02T20:58:28.784Z,5.63
2022-10-02T21:01:34.135Z,5.63
2022-10-02T21:04:26.442Z,6.15
2022-10-02T21:06:54.188Z,5.38
2022-10-02T21:09:51.746Z,5.30
2022-10-02T21:12:56.733Z,5.03
2022-10-02T21:18:11.915Z,4.97
2022-10-02T21:20:52.514Z,5.30
2022-10-02T21:23:45.039Z,4.47
2022-10-02T21:26:50.218Z,6.78
2022-10-02T21:29:20.551Z,5.18
2022-10-02T21:32:30.948Z,5.15
2022-10-02T21:35:16.643Z,5.35
2022-10-02T21:37:58.519Z,6.28
2022-10-02T21:40:37.259Z,5.18
2022-10-02T21:43:25.585Z,5.05
2022-10-02T21:46:29.861Z,5.38
2022-10-02T21:49:44.818Z,6.97
2022-10-02T21:52:32.279Z,5.95
2022-10-02T21:55:08.166Z,5.10
2022-10-02T21:57:43.603Z,4.57
2022-10-02T22:00:23.361Z,5.05
2022-10-02T22:03:12.417Z,3.95
2022-10-02T22:06:06.723Z,4.30
2022-10-02T22:08:57.785Z,5.15
2022-10-02T22:11:57.138Z,4.53
2022-10-02T22:14:50.559Z,5.25
2022-10-02T22:17:42.899Z,6.18
2022-10-02T22:20:26.644Z,5.07
2022-10-02T22:23:10.759Z,5.60
2022-10-02T22:26:04.346Z,4.85
2022-10-02T22:28:48.190Z,5.47
2022-10-02T22:31:24.102Z,4.35
2022-10-02T22:34:22.493Z,3.85
2022-10-02T22:37:24.268Z,4.35
2022-10-02T22:40:01.483Z,4.35
2022-10-02T22:42:34.100Z,6.13
2022-10-02T22:45:04.635Z,3.97
2022-10-02T22:47:40.437Z,4.53
2022-10-02T22:50:13.163Z,4.70
2022-10-02T22:53:08.389Z,4.10
2022-10-02T22:55:38.707Z,3.30
2022-10-02T22:58:18.911Z,4.38
2022-10-02T23:00:51.521Z,3.33
2022-10-02T23:03:22.780Z,3.95
2022-10-02T23:06:05.711Z,5.53
2022-10-02T23:08:39.142Z,4.82
2022-10-02T23:11:16.609Z,3.67
2022-10-02T23:13:56.283Z,3.97
2022-10-02T23:16:42.703Z,3.53
2022-10-02T23:19:22.801Z,4.35
2022-10-02T23:21:52.619Z,4.30
2022-10-02T23:24:45.717Z,3.22
2022-10-02T23:27:22.285Z,3.88
2022-10-02T23:30:00.342Z,3.97
2022-10-02T23:32:37.458Z,3.70
2022-10-02T23:35:13.433Z,3.97
2022-10-02T23:37:43.029Z,3.97
2022-10-02T23:40:42.971Z,4.07
2022-10-02T23:43:10.716Z,3.70
2022-10-02T23:45:40.119Z,5.07
2022-10-02T23:48:15.833Z,4.45
2022-10-02T23:51:27.908Z,4.10
2022-10-02T23:54:16.328Z,4.75
2022-10-02T23:57:05.097Z,3.88
2022-10-02T23:59:34.823Z,3.58
